createdAt,value
2022-07-29T00:04:32.143Z,6.30
2022-07-29T00:08:26.098Z,7.20
2022-07-29T00:12:27.301Z,6.60
2022-07-29T00:28:30.938Z,8.80
2022-07-29T00:32:32.921Z,6.70
2022-07-29T00:36:26.381Z,5.80
2022-07-29T00:40:06.296Z,7.30
2022-07-29T00:44:07.746Z,11.10
2022-07-29T01:08:40.712Z,5.20
2022-07-29T01:12:49.085Z,5.90
2022-07-29T01:16:49.832Z,4.80
2022-07-29T01:20:57.300Z,4.70
2022-07-29T01:25:18.967Z,7.80
2022-07-29T01:29:48.196Z,7.10
2022-07-29T01:38:58.864Z,4.70
2022-07-29T01:43:16.299Z,5.60
2022-07-29T01:47:20.859Z,4.20
2022-07-29T01:51:22.544Z,4.40
2022-07-29T01:55:40.914Z,5.80
2022-07-29T02:16:44.696Z,4.60
2022-07-29T02:20:52.244Z,5.90
2022-07-29T02:29:16.830Z,4.70
2022-07-29T02:33:25.429Z,7.30
2022-07-29T02:53:57.491Z,5.50
2022-07-29T02:58:04.277Z,4.50
2022-07-29T03:02:12.452Z,5.00
2022-07-29T03:18:22.662Z,4.50
2022-07-29T03:22:06.974Z,7.40
2022-07-29T03:26:15.297Z,5.10
2022-07-29T03:30:06.346Z,3.50
2022-07-29T03:38:34.067Z,3.70
2022-07-29T03:58:55.915Z,5.20
2022-07-29T04:03:04.540Z,3.90
2022-07-29T04:07:22.059Z,4.50
2022-07-29T04:32:02.508Z,4.50
2022-07-29T04:36:28.608Z,4.80
2022-07-29T04:40:30.988Z,5.80
2022-07-29T05:05:02.075Z,4.10
2022-07-29T05:09:02.955Z,17.60
2022-07-29T05:13:11.237Z,7.10
2022-07-29T05:16:40.360Z,7.10
2022-07-29T05:20:30.391Z,6.00
2022-07-29T05:40:16.902Z,4.20
2022-07-29T05:44:18.695Z,4.40
2022-07-29T05:48:27.257Z,3.40
2022-07-29T05:52:18.852Z,3.40
2022-07-29T06:11:24.854Z,7.90
2022-07-29T06:15:32.389Z,4.80
2022-07-29T06:19:39.906Z,4.90
2022-07-29T06:36:17.166Z,4.90
2022-07-29T06:40:24.385Z,6.80
2022-07-29T06:43:55.287Z,8.10
2022-07-29T06:46:50.500Z,5.20
2022-07-29T06:50:12.979Z,5.60
2022-07-29T07:10:39.096Z,5.70
2022-07-29T07:13:36.603Z,4.10
2022-07-29T07:16:19.125Z,4.40
2022-07-29T07:19:16.674Z,5.30
2022-07-29T07:23:04.553Z,5.70
2022-07-29T07:26:46.445Z,22.00
2022-07-29T07:29:37.475Z,4.20
2022-07-29T07:32:50.269Z,5.60
2022-07-29T08:01:25.937Z,5.80
2022-07-29T08:04:41.918Z,4.10
2022-07-29T08:08:01.620Z,4.30
2022-07-29T08:10:50.377Z,5.60
2022-07-29T08:13:38.733Z,4.00
2022-07-29T08:16:14.380Z,4.50
2022-07-29T08:18:46.020Z,4.00
2022-07-29T08:22:02.162Z,4.30
2022-07-29T08:25:06.224Z,4.80
2022-07-29T08:29:17.107Z,4.30
2022-07-29T08:32:52.462Z,4.90
2022-07-29T08:36:26.237Z,5.00
2022-07-29T08:40:16.992Z,3.60
2022-07-29T08:44:08.553Z,4.20
2022-07-29T08:47:16.787Z,4.70
2022-07-29T09:07:11.038Z,5.50
2022-07-29T09:10:12.582Z,7.00
2022-07-29T09:12:50.315Z,6.40
2022-07-29T09:16:53.856Z,7.00
2022-07-29T09:19:50.492Z,4.80
2022-07-29T09:23:51.439Z,3.00
2022-07-29T09:28:05.521Z,4.20
2022-07-29T09:31:30.006Z,4.10
2022-07-29T09:35:10.108Z,6.10
2022-07-29T09:38:29.739Z,5.20
2022-07-29T09:41:50.525Z,4.60
2022-07-29T09:45:44.591Z,5.30
2022-07-29T09:50:08.703Z,4.60
2022-07-29T09:59:01.394Z,5.40
2022-07-29T10:02:47.301Z,4.80
2022-07-29T10:06:46.951Z,7.60
2022-07-29T10:23:49.503Z,4.40
2022-07-29T10:27:57.441Z,5.80
2022-07-29T10:32:06.101Z,5.40
2022-07-29T10:36:16.585Z,5.20
2022-07-29T10:40:36.778Z,4.90
2022-07-29T10:44:47.608Z,4.60
2022-07-29T10:48:18.261Z,5.10
2022-07-29T10:52:26.567Z,4.60
2022-07-29T10:56:36.431Z,5.20
2022-07-29T11:05:06.488Z,3.60
2022-07-29T11:09:37.426Z,3.70
2022-07-29T11:13:58.537Z,4.60
2022-07-29T11:18:33.201Z,5.00
2022-07-29T11:22:29.044Z,3.90
2022-07-29T11:25:50.172Z,4.90
2022-07-29T11:28:35.239Z,4.70
2022-07-29T11:31:42.093Z,5.90
2022-07-29T11:35:38.432Z,4.80
2022-07-29T11:40:04.795Z,5.00
2022-07-29T11:44:04.485Z,5.20
2022-07-29T11:48:29.855Z,3.50
2022-07-29T11:52:20.170Z,5.30
2022-07-29T11:56:31.250Z,8.30
2022-07-29T12:00:22.080Z,5.70
2022-07-29T12:38:38.172Z,5.00
2022-07-29T12:41:16.677Z,8.00
2022-07-29T12:43:56.236Z,4.70
2022-07-29T12:46:26.002Z,4.40
2022-07-29T12:48:56.910Z,4.90
2022-07-29T12:51:38.318Z,5.30
2022-07-29T12:54:14.072Z,4.90
2022-07-29T12:56:48.648Z,4.20
2022-07-29T12:59:22.663Z,5.10
2022-07-29T13:01:52.123Z,4.40
2022-07-29T13:04:28.983Z,5.40
2022-07-29T13:07:10.281Z,5.40
2022-07-29T13:09:45.939Z,6.10
2022-07-29T13:12:14.792Z,5.20
2022-07-29T13:14:47.579Z,7.50
2022-07-29T13:17:23.430Z,5.30
2022-07-29T13:20:08.891Z,4.70
2022-07-29T13:22:36.284Z,5.70
2022-07-29T13:25:03.494Z,4.60
2022-07-29T13:27:33.253Z,9.40
2022-07-29T13:30:02.683Z,4.60
2022-07-29T13:32:31.367Z,5.90
2022-07-29T13:35:05.507Z,3.70
2022-07-29T13:37:35.303Z,8.00
2022-07-29T13:40:09.723Z,6.10
2022-07-29T13:42:37.366Z,4.90
2022-07-29T13:45:06.908Z,5.40
2022-07-29T13:47:33.530Z,6.40
2022-07-29T13:50:06.454Z,5.60
2022-07-29T13:52:34.933Z,8.40
2022-07-29T13:55:02.659Z,5.90
2022-07-29T13:57:29.513Z,8.60
2022-07-29T13:59:56.793Z,8.60
2022-07-29T14:02:25.720Z,8.60
2022-07-29T14:04:55.051Z,7.70
2022-07-29T14:07:22.791Z,7.00
2022-07-29T14:09:49.169Z,5.60
2022-07-29T14:12:15.653Z,9.40
2022-07-29T14:14:42.208Z,7.70
2022-07-29T14:17:08.743Z,7.00
2022-07-29T14:19:37.019Z,6.80
2022-07-29T14:22:05.293Z,6.90
2022-07-29T14:24:31.832Z,7.10
2022-07-29T14:27:00.498Z,8.40
2022-07-29T14:29:36.993Z,6.70
2022-07-29T14:32:10.484Z,8.10
2022-07-29T14:34:41.034Z,4.90
2022-07-29T14:37:08.804Z,6.10
2022-07-29T14:39:43.045Z,6.70
2022-07-29T14:42:12.362Z,7.20
2022-07-29T14:44:50.018Z,10.00
2022-07-29T14:48:37.334Z,6.80
2022-07-29T14:52:44.898Z,7.80
2022-07-29T14:56:20.907Z,6.90
2022-07-29T14:59:07.807Z,7.00
2022-07-29T15:02:03.619Z,4.50
2022-07-29T15:04:34.751Z,6.00
2022-07-29T15:07:16.362Z,5.90
2022-07-29T15:09:49.992Z,6.10
2022-07-29T15:12:29.114Z,7.20
2022-07-29T15:15:26.122Z,7.70
2022-07-29T15:18:25.942Z,5.40
2022-07-29T15:21:08.163Z,5.50
2022-07-29T15:23:48.148Z,5.20
2022-07-29T15:26:20.614Z,4.60
2022-07-29T15:28:59.479Z,7.80
2022-07-29T15:31:45.126Z,8.00
2022-07-29T15:35:14.487Z,7.60
2022-07-29T15:38:02.036Z,6.00
2022-07-29T15:40:44.853Z,4.40
2022-07-29T15:43:53.476Z,6.60
2022-07-29T15:47:02.873Z,5.30
2022-07-29T15:50:08.735Z,8.30
2022-07-29T15:53:19.455Z,7.80
2022-07-29T15:56:09.742Z,10.00
2022-07-29T16:00:06.342Z,4.50
2022-07-29T16:03:26.668Z,6.80
2022-07-29T16:07:16.889Z,6.50
2022-07-29T16:10:15.759Z,5.60
2022-07-29T16:13:07.668Z,5.00
2022-07-29T16:32:15.534Z,6.50
2022-07-29T16:36:07.841Z,5.70
2022-07-29T16:40:04.586Z,5.20
2022-07-29T16:44:11.886Z,8.80
2022-07-29T16:47:28.908Z,5.30
2022-07-29T16:50:50.595Z,8.80
2022-07-29T17:35:02.883Z,7.20
2022-07-29T17:38:42.826Z,7.40
2022-07-29T17:41:19.226Z,8.40
2022-07-29T17:43:55.563Z,8.20
2022-07-29T17:46:45.335Z,6.80
2022-07-29T17:49:41.906Z,7.70
2022-07-29T17:52:39.729Z,8.90
2022-07-29T17:55:45.268Z,9.30
2022-07-29T17:58:30.318Z,7.00
2022-07-29T18:01:34.152Z,11.80
2022-07-29T18:04:15.462Z,11.00
2022-07-29T18:06:47.920Z,12.00
2022-07-29T18:09:14.944Z,11.40
2022-07-29T18:11:44.577Z,8.70
2022-07-29T18:14:13.997Z,12.40
2022-07-29T18:16:41.691Z,8.50
2022-07-29T18:19:32.069Z,8.60
2022-07-29T18:22:11.444Z,10.50
2022-07-29T18:24:45.112Z,10.00
2022-07-29T18:27:28.722Z,7.40
2022-07-29T18:30:27.727Z,9.40
2022-07-29T18:33:37.824Z,12.80
2022-07-29T18:36:20.007Z,11.70
2022-07-29T18:38:47.316Z,9.40
2022-07-29T18:42:01.083Z,8.80
2022-07-29T18:44:43.474Z,11.90
2022-07-29T18:47:49.245Z,9.50
2022-07-29T18:50:28.987Z,9.70
2022-07-29T18:53:03.504Z,10.00
2022-07-29T18:55:36.157Z,9.60
2022-07-29T18:58:03.442Z,10.10
2022-07-29T19:00:39.411Z,11.00
2022-07-29T19:03:12.505Z,11.70
2022-07-29T19:05:43.082Z,12.40
2022-07-29T19:08:10.698Z,12.60
2022-07-29T19:10:52.154Z,14.70
2022-07-29T19:13:37.248Z,31.20
2022-07-29T19:16:36.314Z,28.90
2022-07-29T19:19:09.431Z,20.10
2022-07-29T19:21:42.411Z,18.00
2022-07-29T19:24:38.683Z,15.40
2022-07-29T19:27:28.966Z,17.60
2022-07-29T19:30:09.423Z,18.90
2022-07-29T19:32:40.047Z,16.90
2022-07-29T19:35:25.354Z,15.10
2022-07-29T19:38:08.244Z,18.70
2022-07-29T19:41:13.916Z,14.60
2022-07-29T19:44:09.025Z,13.30
2022-07-29T19:47:18.657Z,11.90
2022-07-29T19:50:51.636Z,12.60
2022-07-29T19:54:48.675Z,13.40
2022-07-29T19:58:47.168Z,11.70
2022-07-29T20:02:01.471Z,12.60
2022-07-29T20:05:37.496Z,12.30
2022-07-29T20:25:47.497Z,11.00
2022-07-29T20:29:37.975Z,8.70
2022-07-29T20:33:08.011Z,43.70
2022-07-29T20:55:55.885Z,13.30
2022-07-29T20:59:45.916Z,12.20
2022-07-29T21:03:18.837Z,13.50
2022-07-29T21:06:51.935Z,11.50
2022-07-29T21:09:41.816Z,12.70
2022-07-29T21:44:28.239Z,9.00
2022-07-29T22:11:23.291Z,8.90
2022-07-29T22:15:11.272Z,8.40
2022-07-29T22:18:53.021Z,6.10
2022-07-29T22:22:12.025Z,6.30
2022-07-29T22:25:28.629Z,6.50
2022-07-29T22:29:29.550Z,7.20
2022-07-29T23:03:53.396Z,5.10
2022-07-29T23:08:01.761Z,6.90
2022-07-29T23:51:15.569Z,5.00
2022-07-29T23:57:50.610Z,5.10
